Caerphilly, United Kingdom
Current Conditions -  °F | °C
As of 10:50 PM on Monday 20 Oct 2014 (Local Time) from EGFF Reporting Station
Overcast Overcast  
Wind Chill: 57°   Ceiling: 1500
Heat Index: 57°   Visibility: 6mi
Dew Point: 52°   Wind: 15mph
Humidity: 82%   Direction: 230°SW
Pressure: 29.85"   Gusts: NA
Location:  51.58°N, 3.22°W
Report Text: EGFF 202150Z AUTO 23013KT 9999 OVC015 14/11 Q1011
Loading
Personal Weather Stations






























Interactive Weather Map
Tropical Storm Tracking
New forecast layout! Learn more

10-Day Weather Forecast

Advertisements
Track Severe Weather on mobile